Felix-Klein-Gymnasium, Gttingen, 150m NN
Wetterdaten: aktuell Donnerstag, 17.08.2017 21:15
Datum Zeit Temp. A. Feuchte A. Luftdruck Regen Wind Richtung Richtung Sonnenschein Taupunkt Windchill Windben
17.08.2017 21:15 20,4 C 77 % 1013,3 hPa 0,0 mm 5,5 km/h (1 Bft) NO 36 0 min 16,2 C 20,4 C 14,5 km/h (3 Bft)
17.08.2017 21:03 20,6 C 76 % 1013,1 hPa 0,0 mm 8,5 km/h (2 Bft) N 351 0 min 16,2 C 20,6 C 22,5 km/h (4 Bft)
17.08.2017 20:45 20,5 C 78 % 1012,8 hPa 0,0 mm 8,8 km/h (2 Bft) N 5 0 min 16,5 C 20,5 C 20,9 km/h (4 Bft)
17.08.2017 20:32 20,4 C 81 % 1012,8 hPa 0,0 mm 2,7 km/h (1 Bft) N-NO 31 0 min 17,0 C 20,4 C 19,3 km/h (3 Bft)
17.08.2017 20:15 20,7 C 82 % 1012,9 hPa 0,0 mm 5,3 km/h (1 Bft) N-NO 22 0 min 17,5 C 20,7 C 19,3 km/h (3 Bft)
17.08.2017 20:01 21,3 C 80 % 1013,3 hPa 0,8 mm 10,1 km/h (2 Bft) NO 46 0 min 17,7 C 21,3 C 27,4 km/h (4 Bft)
17.08.2017 19:45 22,7 C 73 % 1012,8 hPa 0,0 mm 4,2 km/h (1 Bft) N-NO 25 0 min 17,6 C 22,7 C 14,5 km/h (3 Bft)
17.08.2017 19:30 22,8 C 74 % 1012,6 hPa 0,0 mm 1,3 km/h (1 Bft) N 5 0 min 17,9 C 22,8 C 8,0 km/h (2 Bft)
17.08.2017 19:15 23,0 C 72 % 1012,5 hPa 0,0 mm 1,3 km/h (1 Bft) N-NO 23 0 min 17,7 C 23,0 C 8,0 km/h (2 Bft)
17.08.2017 19:00 23,1 C 71 % 1012,4 hPa 0,0 mm 2,1 km/h (1 Bft) N 360 0 min 17,5 C 23,1 C 9,7 km/h (2 Bft)
17.08.2017 18:47 23,2 C 71 % 1012,5 hPa 0,0 mm 2,3 km/h (1 Bft) N 5 0 min 17,6 C 23,2 C 8,0 km/h (2 Bft)
17.08.2017 18:30 23,3 C 70 % 1012,5 hPa 0,0 mm 4,4 km/h (1 Bft) N 5 0 min 17,5 C 23,3 C 12,9 km/h (3 Bft)
17.08.2017 18:16 23,4 C 70 % 1012,4 hPa 0,0 mm 4,4 km/h (1 Bft) N 355 0 min 17,6 C 23,4 C 12,9 km/h (3 Bft)
17.08.2017 18:00 23,5 C 70 % 1012,5 hPa 0,0 mm 4,5 km/h (1 Bft) NO 36 0 min 17,7 C 23,5 C 14,5 km/h (3 Bft)
17.08.2017 17:45 23,6 C 69 % 1012,4 hPa 0,0 mm 6,6 km/h (2 Bft) N 350 0 min 17,6 C 23,6 C 19,3 km/h (3 Bft)
17.08.2017 17:30 23,9 C 69 % 1012,4 hPa 0,0 mm 5,3 km/h (1 Bft) N-NO 18 0 min 17,9 C 23,9 C 14,5 km/h (3 Bft)
17.08.2017 17:15 24,1 C 66 % 1012,5 hPa 0,0 mm 7,2 km/h (2 Bft) N-NW 335 0 min 17,3 C 24,1 C 19,3 km/h (3 Bft)
17.08.2017 17:02 24,4 C 63 % 1012,5 hPa 0,0 mm 8,1 km/h (2 Bft) N-NW 340 0 min 16,9 C 24,4 C 24,1 km/h (4 Bft)
17.08.2017 16:45 24,4 C 62 % 1012,5 hPa 0,0 mm 11,5 km/h (2 Bft) N 5 0 min 16,6 C 24,4 C 29,0 km/h (5 Bft)
17.08.2017 16:31 24,7 C 62 % 1012,6 hPa 0,0 mm 9,6 km/h (2 Bft) N-NW 345 0 min 16,9 C 24,7 C 24,1 km/h (4 Bft)
17.08.2017 16:15 24,5 C 63 % 1012,7 hPa 0,0 mm 9,7 km/h (2 Bft) N-NO 15 0 min 17,0 C 24,5 C 24,1 km/h (4 Bft)
17.08.2017 16:00 24,6 C 61 % 1012,7 hPa 0,0 mm 13,4 km/h (3 Bft) NO 38 0 min 16,6 C 24,6 C 32,2 km/h (5 Bft)
17.08.2017 15:45 24,7 C 59 % 1012,8 hPa 0,0 mm 12,4 km/h (3 Bft) N 355 0 min 16,1 C 24,7 C 33,8 km/h (5 Bft)
17.08.2017 15:30 24,8 C 61 % 1012,8 hPa 0,0 mm 9,1 km/h (2 Bft) N 5 0 min 16,8 C 24,8 C 22,5 km/h (4 Bft)
17.08.2017 15:17 24,8 C 60 % 1012,8 hPa 0,0 mm 10,4 km/h (2 Bft) N 350 0 min 16,5 C 24,8 C 25,7 km/h (4 Bft)
17.08.2017 15:00 24,9 C 60 % 1012,9 hPa 0,0 mm 11,0 km/h (2 Bft) N-NW 339 0 min 16,6 C 24,9 C 25,7 km/h (4 Bft)
17.08.2017 14:46 25,3 C 58 % 1013,1 hPa 0,0 mm 9,0 km/h (2 Bft) N 355 0 min 16,4 C 25,3 C 25,7 km/h (4 Bft)
17.08.2017 14:30 25,4 C 58 % 1013,1 hPa 0,0 mm 9,3 km/h (2 Bft) N-NO 24 0 min 16,5 C 25,4 C 20,9 km/h (4 Bft)
17.08.2017 14:15 25,3 C 58 % 1013,1 hPa 0,0 mm 10,2 km/h (2 Bft) N-NO 15 15 min 16,4 C 25,3 C 22,5 km/h (4 Bft)
17.08.2017 14:00 25,7 C 56 % 1013,3 hPa 0,0 mm 7,8 km/h (2 Bft) N-NO 25 0 min 16,2 C 25,7 C 20,9 km/h (4 Bft)
17.08.2017 13:45 25,8 C 61 % 1013,2 hPa 0,0 mm 4,7 km/h (1 Bft) N 355 13 min 17,7 C 25,8 C 12,9 km/h (3 Bft)
17.08.2017 13:32 25,3 C 63 % 1013,4 hPa 0,0 mm 5,1 km/h (1 Bft) N-NW 331 17 min 17,7 C 25,3 C 17,7 km/h (3 Bft)
17.08.2017 13:15 24,9 C 63 % 1013,7 hPa 0,0 mm 5,4 km/h (1 Bft) N-NW 348 14 min 17,4 C 24,9 C 12,9 km/h (3 Bft)
17.08.2017 13:01 24,9 C 61 % 1013,9 hPa 0,0 mm 5,3 km/h (1 Bft) N-NW 341 0 min 16,8 C 24,9 C 16,1 km/h (3 Bft)
17.08.2017 12:45 24,8 C 63 % 1013,9 hPa 0,0 mm 7,2 km/h (2 Bft) N-NO 14 15 min 17,3 C 24,8 C 20,9 km/h (4 Bft)
17.08.2017 12:30 24,7 C 65 % 1013,9 hPa 0,0 mm 6,7 km/h (2 Bft) N 360 0 min 17,7 C 24,7 C 16,1 km/h (3 Bft)
17.08.2017 12:15 24,3 C 68 % 1014,2 hPa 0,0 mm 5,7 km/h (1 Bft) NW 311 0 min 18,0 C 24,3 C 14,5 km/h (3 Bft)
17.08.2017 12:00 23,9 C 69 % 1014,4 hPa 0,0 mm 6,6 km/h (2 Bft) NW 311 0 min 17,9 C 23,9 C 12,9 km/h (3 Bft)
17.08.2017 11:47 23,6 C 71 % 1014,6 hPa 0,0 mm 4,7 km/h (1 Bft) W-NW 297 0 min 18,0 C 23,6 C 14,5 km/h (3 Bft)
17.08.2017 11:30 23,7 C 69 % 1014,7 hPa 0,0 mm 4,9 km/h (1 Bft) NO 39 0 min 17,7 C 23,7 C 16,1 km/h (3 Bft)
17.08.2017 11:16 23,6 C 69 % 1014,8 hPa 0,0 mm 4,8 km/h (1 Bft) NW 316 16 min 17,6 C 23,6 C 14,5 km/h (3 Bft)
17.08.2017 11:00 23,1 C 72 % 1014,9 hPa 0,0 mm 5,4 km/h (1 Bft) W 281 15 min 17,8 C 23,1 C 16,1 km/h (3 Bft)
17.08.2017 10:45 22,5 C 72 % 1014,9 hPa 0,0 mm 6,5 km/h (2 Bft) W-SW 252 15 min 17,2 C 22,5 C 19,3 km/h (3 Bft)
17.08.2017 10:30 22,2 C 75 % 1015,0 hPa 0,0 mm 4,4 km/h (1 Bft) W 273 15 min 17,5 C 22,2 C 14,5 km/h (3 Bft)
17.08.2017 10:15 21,3 C 78 % 1015,0 hPa 0,0 mm 4,4 km/h (1 Bft) W-NW 292 14 min 17,3 C 21,3 C 16,1 km/h (3 Bft)
17.08.2017 10:01 20,7 C 79 % 1015,1 hPa 0,0 mm 3,9 km/h (1 Bft) W 272 16 min 16,9 C 20,7 C 14,5 km/h (3 Bft)
17.08.2017 09:45 19,8 C 81 % 1015,1 hPa 0,0 mm 9,1 km/h (2 Bft) W 274 15 min 16,4 C 19,8 C 19,3 km/h (3 Bft)
17.08.2017 09:30 18,8 C 87 % 1015,2 hPa 0,0 mm 6,3 km/h (2 Bft) W-NW 292 15 min 16,6 C 18,8 C 14,5 km/h (3 Bft)
17.08.2017 09:15 17,7 C 91 % 1015,4 hPa 0,0 mm 3,2 km/h (1 Bft) W-NW 282 0 min 16,2 C 17,7 C 9,7 km/h (2 Bft)
17.08.2017 09:00 17,2 C 92 % 1015,4 hPa 0,0 mm 2,3 km/h (1 Bft) W-NW 290 0 min 15,9 C 17,2 C 8,0 km/h (2 Bft)
17.08.2017 08:45 16,8 C 93 % 1015,5 hPa 0,0 mm 0,9 km/h (0 Bft) NW 312 0 min 15,7 C 16,8 C 4,8 km/h (1 Bft)
17.08.2017 08:30 16,5 C 93 % 1015,6 hPa 0,0 mm 1,2 km/h (1 Bft) NW 315 0 min 15,4 C 16,5 C 8,0 km/h (2 Bft)
17.08.2017 08:15 16,0 C 94 % 1015,6 hPa 0,0 mm 0,4 km/h (0 Bft) W 277 0 min 15,0 C 16,0 C 4,8 km/h (1 Bft)
17.08.2017 08:01 15,6 C 94 % 1015,8 hPa 0,0 mm 0,0 km/h (0 Bft) W-SW 253 0 min 14,6 C 15,6 C 0,0 km/h (0 Bft)
17.08.2017 07:45 15,3 C 94 % 1015,7 hPa 0,0 mm 1,4 km/h (1 Bft) W-SW 253 0 min 14,3 C 15,3 C 8,0 km/h (2 Bft)
17.08.2017 07:30 15,2 C 94 % 1015,8 hPa 0,0 mm 1,7 km/h (1 Bft) W-SW 252 0 min 14,2 C 15,2 C 6,4 km/h (2 Bft)
17.08.2017 07:15 15,1 C 94 % 1015,9 hPa 0,0 mm 1,0 km/h (0 Bft) O-NO 71 0 min 14,1 C 15,1 C 6,4 km/h (2 Bft)
17.08.2017 07:00 14,9 C 95 % 1015,7 hPa 0,0 mm 0,0 km/h (0 Bft) O-NO 76 0 min 14,1 C 14,9 C 1,6 km/h (1 Bft)
17.08.2017 06:47 14,7 C 95 % 1015,8 hPa 0,0 mm 0,0 km/h (0 Bft) O-SO 103 0 min 13,9 C 14,7 C 1,6 km/h (1 Bft)
17.08.2017 06:30 14,5 C 94 % 1015,8 hPa 0,0 mm 0,0 km/h (0 Bft) S-SW 205 0 min 13,5 C 14,5 C 1,6 km/h (1 Bft)
17.08.2017 06:16 14,4 C 94 % 1015,8 hPa 0,0 mm 0,0 km/h (0 Bft) S-SW 203 0 min 13,4 C 14,4 C 0,0 km/h (0 Bft)
17.08.2017 06:00 14,5 C 94 % 1015,8 hPa 0,0 mm 0,0 km/h (0 Bft) S-SO 149 0 min 13,5 C 14,5 C 0,0 km/h (0 Bft)
17.08.2017 05:45 14,6 C 94 % 1015,8 hPa 0,0 mm 0,0 km/h (0 Bft) O 80 0 min 13,6 C 14,6 C 0,0 km/h (0 Bft)
17.08.2017 05:30 14,6 C 94 % 1015,9 hPa 0,0 mm 0,0 km/h (0 Bft) O 80 0 min 13,6 C 14,6 C 0,0 km/h (0 Bft)
17.08.2017 05:15 14,7 C 94 % 1016,1 hPa 0,0 mm 0,0 km/h (0 Bft) O 80 0 min 13,7 C 14,7 C 1,6 km/h (1 Bft)
17.08.2017 05:02 14,7 C 94 % 1016,3 hPa 0,0 mm 0,5 km/h (0 Bft) O 80 0 min 13,7 C 14,7 C 8,0 km/h (2 Bft)
17.08.2017 04:45 14,7 C 93 % 1016,1 hPa 0,0 mm 0,0 km/h (0 Bft) O 79 0 min 13,6 C 14,7 C 0,0 km/h (0 Bft)
17.08.2017 04:31 14,8 C 94 % 1016,3 hPa 0,0 mm 0,0 km/h (0 Bft) O 79 0 min 13,8 C 14,8 C 0,0 km/h (0 Bft)
17.08.2017 04:15 14,8 C 94 % 1016,6 hPa 0,0 mm 0,0 km/h (0 Bft) O 79 0 min 13,8 C 14,8 C 0,0 km/h (0 Bft)
17.08.2017 04:00 14,9 C 94 % 1016,7 hPa 0,0 mm 0,0 km/h (0 Bft) O 79 0 min 13,9 C 14,9 C 0,0 km/h (0 Bft)
17.08.2017 03:45 14,8 C 94 % 1016,7 hPa 0,0 mm 0,0 km/h (0 Bft) O 79 0 min 13,8 C 14,8 C 0,0 km/h (0 Bft)
17.08.2017 03:30 14,7 C 93 % 1016,8 hPa 0,0 mm 0,0 km/h (0 Bft) O 79 0 min 13,6 C 14,7 C 0,0 km/h (0 Bft)
17.08.2017 03:17 14,7 C 93 % 1016,8 hPa 0,0 mm 0,7 km/h (0 Bft) O 79 0 min 13,6 C 14,7 C 4,8 km/h (1 Bft)
17.08.2017 03:00 14,9 C 92 % 1016,7 hPa 0,0 mm 0,1 km/h (0 Bft) NO 37 0 min 13,6 C 14,9 C 3,2 km/h (1 Bft)
17.08.2017 02:46 15,1 C 92 % 1016,6 hPa 0,0 mm 0,0 km/h (0 Bft) NO 36 0 min 13,8 C 15,1 C 0,0 km/h (0 Bft)
17.08.2017 02:30 15,2 C 92 % 1016,9 hPa 0,0 mm 0,0 km/h (0 Bft) NO 36 0 min 13,9 C 15,2 C 1,6 km/h (1 Bft)
17.08.2017 02:15 15,3 C 92 % 1017,1 hPa 0,0 mm 0,0 km/h (0 Bft) NO 36 0 min 14,0 C 15,3 C 0,0 km/h (0 Bft)
17.08.2017 02:00 15,4 C 92 % 1017,2 hPa 0,0 mm 0,0 km/h (0 Bft) NO 36 0 min 14,1 C 15,4 C 0,0 km/h (0 Bft)
17.08.2017 01:45 15,4 C 92 % 1017,5 hPa 0,0 mm 0,0 km/h (0 Bft) NO 36 0 min 14,1 C 15,4 C 0,0 km/h (0 Bft)
17.08.2017 01:32 15,5 C 92 % 1017,6 hPa 0,0 mm 0,0 km/h (0 Bft) NO 36 0 min 14,2 C 15,5 C 0,0 km/h (0 Bft)
17.08.2017 01:15 15,6 C 91 % 1017,8 hPa 0,0 mm 0,0 km/h (0 Bft) NO 36 0 min 14,1 C 15,6 C 1,6 km/h (1 Bft)
17.08.2017 01:01 15,7 C 91 % 1017,8 hPa 0,0 mm 0,5 km/h (0 Bft) NO 36 0 min 14,2 C 15,7 C 4,8 km/h (1 Bft)
17.08.2017 00:45 15,9 C 90 % 1017,9 hPa 0,0 mm 0,4 km/h (0 Bft) NO 36 0 min 14,3 C 15,9 C 4,8 km/h (1 Bft)
17.08.2017 00:30 16,2 C 89 % 1017,9 hPa 0,0 mm 0,0 km/h (0 Bft) NO 51 0 min 14,4 C 16,2 C 0,0 km/h (0 Bft)
17.08.2017 00:15 16,3 C 89 % 1018,1 hPa 0,0 mm 0,0 km/h (0 Bft) NO 51 0 min 14,5 C 16,3 C 1,6 km/h (1 Bft)
17.08.2017 00:00 16,4 C 89 % 1018,2 hPa 0,0 mm 0,0 km/h (0 Bft) NO 51 0 min 14,6 C 16,4 C 1,6 km/h (1 Bft)
16.08.2017 23:45 16,6 C 88 % 1018,3 hPa 0,0 mm 0,0 km/h (0 Bft) NO 45 0 min 14,6 C 16,6 C 3,2 km/h (1 Bft)
16.08.2017 23:30 16,8 C 87 % 1018,4 hPa 0,0 mm 0,0 km/h (0 Bft) N 0 0 min 14,6 C 16,8 C 0,0 km/h (0 Bft)
16.08.2017 23:15 17,0 C 86 % 1018,3 hPa 0,0 mm 1,6 km/h (1 Bft) NO 45 0 min 14,6 C 17,0 C 8,0 km/h (2 Bft)
16.08.2017 23:00 17,3 C 85 % 1018,3 hPa 0,0 mm 1,5 km/h (1 Bft) O-NO 57 0 min 14,8 C 17,3 C 6,4 km/h (2 Bft)
16.08.2017 22:45 17,6 C 84 % 1018,1 hPa 0,0 mm 2,1 km/h (1 Bft) W-NW 292 0 min 14,9 C 17,6 C 8,0 km/h (2 Bft)
16.08.2017 22:32 18,4 C 82 % 1018,6 hPa 0,0 mm 0,0 km/h (0 Bft) O 82 0 min 15,3 C 18,4 C 0,0 km/h (0 Bft)
16.08.2017 22:15 18,8 C 80 % 1018,5 hPa 0,0 mm 0,0 km/h (0 Bft) O 82 0 min 15,3 C 18,8 C 1,6 km/h (1 Bft)
16.08.2017 22:01 19,2 C 77 % 1018,5 hPa 0,0 mm 1,2 km/h (1 Bft) O 82 0 min 15,1 C 19,2 C 8,0 km/h (2 Bft)
_ Min-Zeit 06:16 14:00 17:30 - 22:15 - - - 06:16 06:16 22:32
Minimum _ 14,4 C 56 % 1012,4 hPa - 0,0 km/h (0 Bft) - - - 13,4 C 14,4 C 0,0 km/h (0 Bft)
_ Max-Zeit 14:00 06:47 22:32 20:01 16:00 - - 13:32 11:47 13:45 15:45
Maximum _ 26,1 C 95 % 1018,6 hPa 0,8 mm 13,4 km/h
NO (3 Bft)
- - 17 min 18,0 C 25,8 C 33,8 km/h
N-NO (5 Bft)
Durchschnitt _ 19,6 C 79 % 1015,3 hPa #0,8 mm 3,4 km/h (1 Bft) N - #3:15 h 15,7 C 19,6 C 10,6 km/h (2 Bft)